IGO9592 EDDM-EDDH
Flight info
| Callsign | IGO9592 |
|---|---|
| Flight time | N/A |
| Altitude | 36000 |
| Route | INPUD3Q/08L INPUD Y102 UPALA M726 NARUS DCT ABGUS DCT DIRBO/N0355F230 T902 RARUP RARUP6A |
| Aircraft | A20N/M-SDE2E3FGHIRWXY/LB1 |
Departure
| Time | 2026-05-06 13:24 |
|---|---|
| Airport | Munich Airport (EDDM) |
Arrival
| Time | N/A |
|---|---|
| Airport | Hamburg Helmut Schmidt Airport (EDDH) |
| Time | Latitude | Longitude | Altitude | Speed | Heading |
|---|---|---|---|---|---|
| 2026-05-06 12:02 | 48.34976 | 11.77975 | 1466 ft | 0 kts | 84° |
| 2026-05-06 13:00 | 48.34976 | 11.77974 | 1466 ft | 1 kts | 84° |
| 2026-05-06 13:00 | 48.34976 | 11.77972 | 1466 ft | 0 kts | 84° |
| 2026-05-06 13:00 | 48.34974 | 11.77942 | 1461 ft | 2 kts | 84° |
| 2026-05-06 13:01 | 48.34973 | 11.77929 | 1463 ft | 0 kts | 89° |
| 2026-05-06 13:01 | 48.34959 | 11.77898 | 1462 ft | 6 kts | 18° |
| 2026-05-06 13:01 | 48.34937 | 11.77892 | 1464 ft | 0 kts | 0° |
| 2026-05-06 13:15 | 48.34938 | 11.77892 | 1466 ft | 1 kts | 0° |
| 2026-05-06 13:15 | 48.34957 | 11.77891 | 1466 ft | 4 kts | 356° |
| 2026-05-06 13:15 | 48.34999 | 11.77885 | 1461 ft | 8 kts | 354° |
| 2026-05-06 13:16 | 48.35061 | 11.77874 | 1466 ft | 10 kts | 353° |
| 2026-05-06 13:16 | 48.35142 | 11.77860 | 1466 ft | 13 kts | 353° |
| 2026-05-06 13:16 | 48.35239 | 11.77844 | 1459 ft | 13 kts | 353° |
| 2026-05-06 13:16 | 48.35334 | 11.77826 | 1466 ft | 15 kts | 355° |
| 2026-05-06 13:17 | 48.35447 | 11.77807 | 1461 ft | 17 kts | 352° |
| 2026-05-06 13:17 | 48.35520 | 11.77794 | 1460 ft | 0 kts | 353° |
| 2026-05-06 13:17 | 48.35522 | 11.77794 | 1461 ft | 0 kts | 353° |
| 2026-05-06 13:18 | 48.35532 | 11.77792 | 1463 ft | 3 kts | 353° |
| 2026-05-06 13:18 | 48.35564 | 11.77786 | 1462 ft | 6 kts | 353° |
| 2026-05-06 13:18 | 48.35619 | 11.77777 | 1462 ft | 9 kts | 353° |
| 2026-05-06 13:19 | 48.35694 | 11.77764 | 1466 ft | 12 kts | 353° |
| 2026-05-06 13:19 | 48.35761 | 11.77735 | 1463 ft | 2 kts | 332° |
| 2026-05-06 13:19 | 48.35767 | 11.77730 | 1462 ft | 3 kts | 329° |
| 2026-05-06 13:19 | 48.35793 | 11.77709 | 1466 ft | 6 kts | 338° |
| 2026-05-06 13:20 | 48.35842 | 11.77698 | 1463 ft | 8 kts | 355° |
| 2026-05-06 13:20 | 48.35908 | 11.77685 | 1463 ft | 10 kts | 350° |
| 2026-05-06 13:20 | 48.35924 | 11.77681 | 1466 ft | 2 kts | 351° |
| 2026-05-06 13:20 | 48.35948 | 11.77676 | 1460 ft | 4 kts | 353° |
| 2026-05-06 13:21 | 48.35990 | 11.77670 | 1458 ft | 8 kts | 355° |
| 2026-05-06 13:21 | 48.36052 | 11.77660 | 1460 ft | 10 kts | 353° |
| 2026-05-06 13:21 | 48.36127 | 11.77683 | 1466 ft | 5 kts | 30° |
| 2026-05-06 13:21 | 48.36132 | 11.77689 | 1458 ft | 2 kts | 38° |
| 2026-05-06 13:22 | 48.36156 | 11.77717 | 1462 ft | 6 kts | 41° |
| 2026-05-06 13:22 | 48.36188 | 11.77783 | 1464 ft | 10 kts | 54° |
| 2026-05-06 13:22 | 48.36238 | 11.77890 | 1462 ft | 15 kts | 56° |
| 2026-05-06 13:22 | 48.36306 | 11.78027 | 1462 ft | 17 kts | 53° |
| 2026-05-06 13:23 | 48.36361 | 11.78118 | 1460 ft | 0 kts | 32° |
| 2026-05-06 13:23 | 48.36377 | 11.78139 | 1460 ft | 5 kts | 49° |
| 2026-05-06 13:23 | 48.36385 | 11.78201 | 1460 ft | 16 kts | 80° |
| 2026-05-06 13:23 | 48.36434 | 11.78798 | 1466 ft | 101 kts | 83° |
| 2026-05-06 13:24 | 48.36573 | 11.80204 | 1526 ft | 164 kts | 80° |
| 2026-05-06 13:24 | 48.36710 | 11.81985 | 2346 ft | 173 kts | 84° |
| 2026-05-06 13:24 | 48.36828 | 11.83801 | 3316 ft | 173 kts | 83° |
| 2026-05-06 13:24 | 48.36958 | 11.85651 | 4038 ft | 186 kts | 84° |
| 2026-05-06 13:25 | 48.37094 | 11.87723 | 4604 ft | 208 kts | 84° |
| 2026-05-06 13:25 | 48.37240 | 11.89979 | 5173 ft | 231 kts | 86° |
| 2026-05-06 13:25 | 48.37423 | 11.92538 | 5727 ft | 257 kts | 81° |
| 2026-05-06 13:25 | 48.38174 | 11.95057 | 6296 ft | 281 kts | 53° |
| 2026-05-06 13:26 | 48.39681 | 11.96988 | 6651 ft | 288 kts | 28° |
| 2026-05-06 13:26 | 48.41589 | 11.97787 | 6767 ft | 292 kts | 2° |
| 2026-05-06 13:26 | 48.43602 | 11.97262 | 6770 ft | 289 kts | 335° |
| 2026-05-06 13:26 | 48.45202 | 11.95513 | 6748 ft | 284 kts | 307° |
| 2026-05-06 13:27 | 48.46088 | 11.92991 | 6749 ft | 282 kts | 281° |
| 2026-05-06 13:27 | 48.46126 | 11.90040 | 6748 ft | 275 kts | 253° |
| 2026-05-06 13:27 | 48.45276 | 11.87509 | 6745 ft | 270 kts | 226° |
| 2026-05-06 13:27 | 48.43762 | 11.85909 | 6749 ft | 268 kts | 199° |
| 2026-05-06 13:28 | 48.41963 | 11.85333 | 6745 ft | 268 kts | 192° |
| 2026-05-06 13:28 | 48.40287 | 11.84156 | 6746 ft | 268 kts | 218° |
| 2026-05-06 13:28 | 48.39146 | 11.81928 | 6748 ft | 272 kts | 245° |